createdAt,value
2017-03-31T00:00:45.870Z,0
2017-03-31T00:01:55.136Z,0
2017-03-31T00:03:04.139Z,0
2017-03-31T00:04:13.099Z,0
2017-03-31T00:05:22.054Z,0
2017-03-31T00:06:31.012Z,0
2017-03-31T00:07:40.217Z,0
2017-03-31T00:08:49.173Z,0
2017-03-31T00:09:58.134Z,0
2017-03-31T00:11:07.088Z,0
2017-03-31T00:12:16.050Z,0
2017-03-31T00:13:25.306Z,0
2017-03-31T00:14:34.265Z,0
2017-03-31T00:15:43.302Z,0
2017-03-31T00:16:52.255Z,0
2017-03-31T00:18:01.214Z,0
2017-03-31T00:19:10.420Z,0
2017-03-31T00:20:19.378Z,0
2017-03-31T00:21:28.337Z,0
2017-03-31T00:22:37.301Z,0
2017-03-31T00:23:46.342Z,0
2017-03-31T00:24:55.689Z,0
2017-03-31T00:26:04.647Z,0
2017-03-31T00:27:13.607Z,0
2017-03-31T00:28:22.563Z,0
2017-03-31T00:29:31.516Z,0
2017-03-31T00:30:40.857Z,0
2017-03-31T00:31:49.813Z,0
2017-03-31T00:32:58.862Z,0
2017-03-31T00:34:07.819Z,0
2017-03-31T00:35:16.776Z,0
2017-03-31T00:36:26.037Z,0
2017-03-31T00:37:34.997Z,0
2017-03-31T00:38:44.043Z,0
2017-03-31T00:39:53.007Z,0
2017-03-31T00:41:01.966Z,0
2017-03-31T00:42:11.221Z,0
2017-03-31T00:43:20.174Z,0
2017-03-31T00:44:29.130Z,0
2017-03-31T00:45:38.091Z,0
2017-03-31T00:46:47.131Z,0
2017-03-31T00:47:56.473Z,0
2017-03-31T00:49:05.430Z,0
2017-03-31T00:50:14.478Z,0
2017-03-31T00:51:23.430Z,0
2017-03-31T00:52:32.387Z,0
2017-03-31T00:53:41.591Z,0
2017-03-31T00:54:50.546Z,0
2017-03-31T00:55:59.508Z,0
2017-03-31T00:57:08.460Z,0
2017-03-31T00:58:17.422Z,0
2017-03-31T00:59:26.766Z,0
2017-03-31T01:00:35.731Z,0
2017-03-31T01:01:44.690Z,0
2017-03-31T01:02:53.645Z,0
2017-03-31T01:04:02.935Z,0
2017-03-31T01:05:12.151Z,0
2017-03-31T01:06:21.136Z,0
2017-03-31T01:07:30.090Z,0
2017-03-31T01:08:39.049Z,0
2017-03-31T01:09:48.005Z,0
2017-03-31T01:10:57.220Z,0
2017-03-31T01:12:06.173Z,0
2017-03-31T01:13:15.129Z,0
2017-03-31T01:14:24.087Z,0
2017-03-31T01:15:33.049Z,0
2017-03-31T01:16:42.304Z,0
2017-03-31T01:17:51.262Z,0
2017-03-31T01:19:00.212Z,0
2017-03-31T01:20:09.165Z,0
2017-03-31T01:21:18.124Z,0
2017-03-31T01:22:27.336Z,0
2017-03-31T01:23:36.385Z,0
2017-03-31T01:24:45.338Z,0
2017-03-31T01:25:54.295Z,0
2017-03-31T01:27:03.245Z,0
2017-03-31T01:28:12.479Z,0
2017-03-31T01:29:21.433Z,0
2017-03-31T01:30:30.385Z,0
2017-03-31T01:31:39.341Z,0
2017-03-31T01:32:48.297Z,0
2017-03-31T01:33:57.513Z,0
2017-03-31T01:35:06.474Z,0
2017-03-31T01:36:15.428Z,0
2017-03-31T01:37:24.384Z,0
2017-03-31T01:38:33.346Z,0
2017-03-31T01:39:42.604Z,0
2017-03-31T01:40:51.561Z,0
2017-03-31T01:42:00.515Z,0
2017-03-31T01:43:09.469Z,0
2017-03-31T01:44:18.419Z,0
2017-03-31T01:45:27.627Z,0
2017-03-31T01:46:36.592Z,0
2017-03-31T01:47:45.546Z,0
2017-03-31T01:48:54.501Z,0
2017-03-31T01:50:03.465Z,0
2017-03-31T01:51:12.724Z,0
2017-03-31T01:52:21.683Z,0
2017-03-31T01:53:30.642Z,0
2017-03-31T01:54:39.592Z,0
2017-03-31T01:55:48.552Z,0
2017-03-31T01:56:57.808Z,0
2017-03-31T01:58:06.763Z,0
2017-03-31T01:59:15.722Z,0
2017-03-31T02:00:24.683Z,0
2017-03-31T02:01:33.642Z,0
2017-03-31T02:02:42.894Z,0
2017-03-31T02:03:51.846Z,0
2017-03-31T02:05:00.806Z,0
2017-03-31T02:06:09.764Z,0
2017-03-31T02:07:18.718Z,0
2017-03-31T02:08:27.975Z,0
2017-03-31T02:09:36.937Z,0
2017-03-31T02:10:45.894Z,0
2017-03-31T02:11:54.847Z,0
2017-03-31T02:13:03.810Z,0
2017-03-31T02:14:13.067Z,0
2017-03-31T02:15:22.024Z,0
2017-03-31T02:16:30.989Z,0
2017-03-31T02:17:39.951Z,0
2017-03-31T02:18:48.914Z,0
2017-03-31T02:19:58.530Z,0
2017-03-31T02:21:07.852Z,0
2017-03-31T02:22:16.807Z,0
2017-03-31T02:23:25.766Z,0
2017-03-31T02:24:34.717Z,0
2017-03-31T02:25:43.979Z,0
2017-03-31T02:26:52.932Z,0
2017-03-31T02:28:01.886Z,0
2017-03-31T02:29:10.842Z,0
2017-03-31T02:30:19.796Z,0
2017-03-31T02:31:29.054Z,0
2017-03-31T02:32:38.013Z,0
2017-03-31T02:33:46.968Z,0
2017-03-31T02:34:55.930Z,0
2017-03-31T02:36:04.892Z,0
2017-03-31T02:37:14.147Z,0
2017-03-31T02:38:23.119Z,0
2017-03-31T02:39:32.075Z,0
2017-03-31T02:40:41.029Z,0
2017-03-31T02:41:49.983Z,0
2017-03-31T02:42:59.237Z,0
2017-03-31T02:44:08.203Z,0
2017-03-31T02:45:17.161Z,0
2017-03-31T02:46:26.112Z,0
2017-03-31T02:47:35.066Z,0
2017-03-31T02:48:44.415Z,0
2017-03-31T02:49:53.372Z,0
2017-03-31T02:51:02.330Z,0
2017-03-31T02:52:11.288Z,0
2017-03-31T02:53:20.242Z,0
2017-03-31T02:54:29.497Z,0
2017-03-31T02:55:38.457Z,0
2017-03-31T02:56:47.428Z,0
2017-03-31T02:57:56.386Z,0
2017-03-31T02:59:05.344Z,0
2017-03-31T03:00:14.605Z,0
2017-03-31T03:01:23.568Z,0
2017-03-31T03:02:32.534Z,0
2017-03-31T03:03:41.492Z,0
2017-03-31T03:04:50.454Z,0
2017-03-31T03:05:59.714Z,0
2017-03-31T03:07:08.670Z,0
2017-03-31T03:08:17.632Z,0
2017-03-31T03:09:26.588Z,0
2017-03-31T03:10:35.545Z,0
2017-03-31T03:11:44.800Z,0
2017-03-31T03:12:53.760Z,0
2017-03-31T03:14:02.715Z,0
2017-03-31T03:15:11.756Z,0
2017-03-31T03:16:20.708Z,0
2017-03-31T03:17:29.982Z,0
2017-03-31T03:18:38.935Z,0
2017-03-31T03:19:47.896Z,0
2017-03-31T03:20:56.849Z,0
2017-03-31T03:22:05.808Z,0
2017-03-31T03:23:15.069Z,0
2017-03-31T03:24:24.022Z,0
2017-03-31T03:25:32.980Z,0
2017-03-31T03:26:41.933Z,0
2017-03-31T03:27:50.892Z,0
2017-03-31T03:29:00.146Z,0
2017-03-31T03:30:09.106Z,0
2017-03-31T03:31:18.064Z,0
2017-03-31T03:32:27.022Z,0
2017-03-31T03:33:35.986Z,0
2017-03-31T03:34:45.247Z,0
2017-03-31T03:35:54.203Z,0
2017-03-31T03:37:03.158Z,0
2017-03-31T03:38:12.109Z,0
2017-03-31T03:39:21.063Z,0
2017-03-31T03:40:30.265Z,0
2017-03-31T03:41:39.220Z,0
2017-03-31T03:42:48.175Z,0
2017-03-31T03:43:57.130Z,0
2017-03-31T03:45:06.093Z,0
2017-03-31T03:46:15.353Z,0
2017-03-31T03:47:24.336Z,0
2017-03-31T03:48:33.294Z,0
2017-03-31T03:49:42.246Z,0
2017-03-31T03:50:57.468Z,0
2017-03-31T03:52:06.723Z,0
2017-03-31T03:53:15.679Z,0
2017-03-31T03:54:24.635Z,0
2017-03-31T03:55:33.591Z,0
2017-03-31T03:56:42.549Z,0
2017-03-31T03:57:51.790Z,0
2017-03-31T03:59:00.744Z,0
2017-03-31T04:00:09.699Z,0
2017-03-31T04:01:18.654Z,0
2017-03-31T04:02:27.636Z,0
2017-03-31T04:03:36.842Z,0
2017-03-31T04:04:45.834Z,0
2017-03-31T04:05:54.787Z,0
2017-03-31T04:07:03.742Z,0
2017-03-31T04:08:12.699Z,0
2017-03-31T04:09:21.960Z,0
2017-03-31T04:10:30.916Z,0
2017-03-31T04:11:39.960Z,0
2017-03-31T04:12:49.246Z,0
2017-03-31T04:13:58.524Z,0
2017-03-31T04:15:07.735Z,0
2017-03-31T04:16:16.694Z,0
2017-03-31T04:17:25.653Z,0
2017-03-31T04:18:34.607Z,4
2017-03-31T04:19:43.571Z,0
2017-03-31T04:20:52.867Z,4
2017-03-31T04:22:01.825Z,4
2017-03-31T04:23:10.784Z,4
2017-03-31T04:24:19.737Z,4
2017-03-31T04:25:28.690Z,4
2017-03-31T04:26:37.903Z,8
2017-03-31T04:27:46.941Z,8
2017-03-31T04:28:55.895Z,12
2017-03-31T04:30:04.851Z,16
2017-03-31T04:31:13.803Z,16
2017-03-31T04:32:23.006Z,20
2017-03-31T04:33:31.960Z,24
2017-03-31T04:34:40.919Z,28
2017-03-31T04:35:49.872Z,36
2017-03-31T04:36:58.830Z,36
2017-03-31T04:38:08.039Z,44
2017-03-31T04:39:16.991Z,48
2017-03-31T04:40:25.941Z,52
2017-03-31T04:41:34.981Z,60
2017-03-31T04:42:43.934Z,64
2017-03-31T04:43:53.144Z,72
2017-03-31T04:45:02.184Z,76
2017-03-31T04:46:11.228Z,84
2017-03-31T04:47:20.186Z,96
2017-03-31T04:48:29.142Z,104
2017-03-31T04:49:38.434Z,112
2017-03-31T04:50:47.384Z,120
2017-03-31T04:51:56.344Z,132
2017-03-31T04:53:05.302Z,144
2017-03-31T04:54:14.258Z,152
2017-03-31T04:55:23.486Z,168
2017-03-31T04:56:32.451Z,180
2017-03-31T04:57:41.415Z,192
2017-03-31T04:58:50.369Z,212
2017-03-31T04:59:59.329Z,224
2017-03-31T05:01:08.862Z,240
2017-03-31T05:02:18.007Z,260
2017-03-31T05:03:26.961Z,276
2017-03-31T05:04:35.925Z,296
2017-03-31T05:05:44.886Z,312
2017-03-31T05:06:54.093Z,332
2017-03-31T05:08:03.049Z,348
2017-03-31T05:09:12.415Z,360
2017-03-31T05:10:21.457Z,380
2017-03-31T05:11:30.413Z,396
2017-03-31T05:12:39.618Z,420
2017-03-31T05:13:48.572Z,448
2017-03-31T05:14:57.525Z,472
2017-03-31T05:16:06.480Z,500
2017-03-31T05:17:15.436Z,520
2017-03-31T05:18:24.639Z,540
2017-03-31T05:19:33.605Z,552
2017-03-31T05:20:42.650Z,568
2017-03-31T05:21:51.605Z,576
2017-03-31T05:23:00.558Z,580
2017-03-31T05:24:09.771Z,584
2017-03-31T05:25:18.726Z,588
2017-03-31T05:26:27.708Z,600
2017-03-31T05:27:36.665Z,612
2017-03-31T05:28:45.626Z,620
2017-03-31T05:29:54.826Z,636
2017-03-31T05:31:03.776Z,652
2017-03-31T05:32:12.730Z,672
2017-03-31T05:33:21.685Z,684
2017-03-31T05:34:30.639Z,692
2017-03-31T05:35:39.848Z,704
2017-03-31T05:36:48.804Z,720
2017-03-31T05:37:58.082Z,728
2017-03-31T05:39:07.133Z,748
2017-03-31T05:40:16.088Z,756
2017-03-31T05:41:25.293Z,772
2017-03-31T05:42:34.251Z,792
2017-03-31T05:43:43.292Z,808
2017-03-31T05:44:52.249Z,820
2017-03-31T05:46:01.292Z,836
2017-03-31T05:47:10.498Z,848
2017-03-31T05:48:19.451Z,856
2017-03-31T05:49:28.405Z,860
2017-03-31T05:50:37.447Z,868
2017-03-31T05:51:46.441Z,876
2017-03-31T05:52:55.648Z,888
2017-03-31T05:54:04.698Z,896
2017-03-31T05:55:13.656Z,900
2017-03-31T05:56:22.620Z,916
2017-03-31T05:57:31.578Z,932
2017-03-31T05:58:40.793Z,940
2017-03-31T05:59:49.750Z,952
2017-03-31T06:00:58.799Z,972
2017-03-31T06:02:07.753Z,988
2017-03-31T06:03:16.703Z,1012
2017-03-31T06:04:25.911Z,1032
2017-03-31T06:05:34.873Z,1044
2017-03-31T06:06:43.917Z,1064
2017-03-31T06:07:52.876Z,1072
2017-03-31T06:09:01.840Z,1080
2017-03-31T06:10:11.045Z,1096
2017-03-31T06:11:20.000Z,1104
2017-03-31T06:12:28.953Z,1104
2017-03-31T06:13:37.913Z,1112
2017-03-31T06:14:46.954Z,1116
2017-03-31T06:15:56.164Z,1120
2017-03-31T06:17:05.453Z,1128
2017-03-31T06:18:14.407Z,1132
2017-03-31T06:19:23.362Z,1136
2017-03-31T06:20:32.345Z,1144
2017-03-31T06:21:41.553Z,1168
2017-03-31T06:22:50.505Z,1188
2017-03-31T06:23:59.458Z,1212
2017-03-31T06:25:08.415Z,1244
2017-03-31T06:26:17.395Z,1268
2017-03-31T06:27:26.609Z,1296
2017-03-31T06:28:35.564Z,1312
2017-03-31T06:29:44.609Z,1332
2017-03-31T06:30:53.565Z,1356
2017-03-31T06:32:02.521Z,1380
2017-03-31T06:33:11.740Z,1400
2017-03-31T06:34:20.703Z,1428
2017-03-31T06:35:29.663Z,1456
2017-03-31T06:36:38.617Z,1480
2017-03-31T06:37:47.568Z,1500
2017-03-31T06:38:56.772Z,1516
2017-03-31T06:40:05.738Z,1540
2017-03-31T06:41:14.694Z,1560
2017-03-31T06:42:23.648Z,1564
2017-03-31T06:43:32.602Z,1568
2017-03-31T06:44:41.810Z,1572
2017-03-31T06:45:50.802Z,1572
2017-03-31T06:46:59.750Z,1572
2017-03-31T06:48:08.713Z,1572
2017-03-31T06:49:17.672Z,1588
2017-03-31T06:50:26.876Z,1600
2017-03-31T06:51:35.830Z,1600
2017-03-31T06:52:44.876Z,1624
2017-03-31T06:53:53.828Z,1640
2017-03-31T06:55:02.870Z,1668
2017-03-31T06:56:12.083Z,1684
2017-03-31T06:57:21.041Z,1700
2017-03-31T06:58:30.001Z,1700
2017-03-31T06:59:38.959Z,1716
2017-03-31T07:00:47.913Z,1744
2017-03-31T07:01:57.118Z,1764
2017-03-31T07:03:06.085Z,1788
2017-03-31T07:04:15.044Z,1800
2017-03-31T07:05:23.994Z,1804
2017-03-31T07:06:32.953Z,1820
2017-03-31T07:07:42.169Z,1828
2017-03-31T07:08:51.139Z,1844
2017-03-31T07:10:00.099Z,1852
2017-03-31T07:11:09.149Z,1856
2017-03-31T07:12:18.108Z,1860
2017-03-31T07:13:27.317Z,1868
2017-03-31T07:14:36.276Z,1864
2017-03-31T07:15:45.238Z,1880
2017-03-31T07:16:54.280Z,1888
2017-03-31T07:18:03.327Z,1904
2017-03-31T07:19:12.628Z,1908
2017-03-31T07:20:21.592Z,1920
2017-03-31T07:21:30.552Z,1928
2017-03-31T07:22:39.510Z,1924
2017-03-31T07:23:48.468Z,1928
2017-03-31T07:24:57.673Z,1928
2017-03-31T07:26:06.634Z,1928
2017-03-31T07:27:15.596Z,1936
2017-03-31T07:28:24.564Z,1952
2017-03-31T07:29:33.526Z,1976
2017-03-31T07:30:42.736Z,2008
2017-03-31T07:31:51.779Z,2040
2017-03-31T07:33:00.738Z,2084
2017-03-31T07:34:09.705Z,2132
2017-03-31T07:35:18.661Z,2176
2017-03-31T07:36:27.870Z,2208
2017-03-31T07:37:36.915Z,2240
2017-03-31T07:38:45.870Z,2260
2017-03-31T07:39:54.825Z,2300
2017-03-31T07:41:03.865Z,2316
2017-03-31T07:42:13.082Z,2312
2017-03-31T07:43:22.048Z,2304
2017-03-31T07:44:31.102Z,2292
2017-03-31T07:45:40.058Z,2292
2017-03-31T07:46:49.166Z,2316
2017-03-31T07:47:58.373Z,2304
2017-03-31T07:49:07.336Z,2344
2017-03-31T07:50:16.297Z,2368
2017-03-31T07:51:25.255Z,2384
2017-03-31T07:52:34.543Z,2416
2017-03-31T07:53:43.749Z,2444
2017-03-31T07:54:52.709Z,2460
2017-03-31T07:56:01.667Z,2484
2017-03-31T07:57:10.627Z,2512
2017-03-31T07:58:19.672Z,2540
2017-03-31T07:59:28.879Z,2584
2017-03-31T08:00:37.839Z,2632
2017-03-31T08:01:46.797Z,2696
2017-03-31T08:02:55.755Z,2764
2017-03-31T08:04:04.719Z,2812
2017-03-31T08:05:13.927Z,2872
2017-03-31T08:06:22.967Z,2932
2017-03-31T08:07:31.923Z,2996
2017-03-31T08:08:40.885Z,3068
2017-03-31T08:09:49.841Z,3140
2017-03-31T08:10:59.137Z,3192
2017-03-31T08:12:08.095Z,3248
2017-03-31T08:13:17.055Z,3288
2017-03-31T08:14:26.022Z,3300
2017-03-31T08:15:34.986Z,3388
2017-03-31T08:16:44.201Z,3452
2017-03-31T08:17:53.164Z,3484
2017-03-31T08:19:02.126Z,3504
2017-03-31T08:20:11.090Z,3544
2017-03-31T08:21:20.052Z,3576
2017-03-31T08:22:29.266Z,3532
2017-03-31T08:23:38.328Z,3500
2017-03-31T08:24:47.285Z,3472
2017-03-31T08:25:56.245Z,3468
2017-03-31T08:27:05.205Z,3452
2017-03-31T08:28:14.413Z,3464
2017-03-31T08:29:23.368Z,3440
2017-03-31T08:30:32.331Z,3352
2017-03-31T08:31:41.285Z,3328
2017-03-31T08:32:50.245Z,3288
2017-03-31T08:33:59.541Z,3288
2017-03-31T08:35:08.591Z,3308
2017-03-31T08:36:17.637Z,3332
2017-03-31T08:37:26.597Z,3356
2017-03-31T08:38:35.554Z,3396
2017-03-31T08:39:44.769Z,3436
2017-03-31T08:40:53.728Z,3524
2017-03-31T08:42:02.767Z,3620
2017-03-31T08:43:11.725Z,3692
2017-03-31T08:44:20.690Z,3752
2017-03-31T08:45:29.898Z,3808
2017-03-31T08:46:38.985Z,3832
2017-03-31T08:47:47.953Z,3940
2017-03-31T08:48:56.914Z,3968
2017-03-31T08:50:05.874Z,3952
2017-03-31T08:51:15.084Z,3976
2017-03-31T08:52:24.043Z,4036
2017-03-31T08:53:33.004Z,4092
2017-03-31T08:54:41.966Z,4100
2017-03-31T08:55:50.936Z,4116
2017-03-31T08:57:00.197Z,4072
2017-03-31T08:58:09.154Z,4076
2017-03-31T08:59:18.114Z,4060
2017-03-31T09:00:27.080Z,4024
2017-03-31T09:01:36.042Z,3964
2017-03-31T09:02:45.253Z,3944
2017-03-31T09:03:54.209Z,4000
2017-03-31T09:05:03.196Z,4036
2017-03-31T09:06:12.160Z,4044
2017-03-31T09:07:21.210Z,4064
2017-03-31T09:08:30.472Z,4044
2017-03-31T09:09:39.436Z,4084
2017-03-31T09:10:48.487Z,4104
2017-03-31T09:11:57.453Z,4144
2017-03-31T09:13:06.432Z,4156
2017-03-31T09:14:15.646Z,4168
2017-03-31T09:15:24.608Z,4196
2017-03-31T09:16:33.572Z,4148
2017-03-31T09:17:42.536Z,4152
2017-03-31T09:18:51.490Z,4176
2017-03-31T09:20:01.029Z,4164
2017-03-31T09:21:10.081Z,4160
2017-03-31T09:22:19.044Z,4164
2017-03-31T09:23:28.000Z,4100
2017-03-31T09:24:36.962Z,4076
2017-03-31T09:25:46.171Z,4012
2017-03-31T09:26:55.139Z,3988
2017-03-31T09:28:04.191Z,4012
2017-03-31T09:29:13.156Z,4060
2017-03-31T09:30:22.115Z,4132
2017-03-31T09:31:31.324Z,4156
2017-03-31T09:32:40.284Z,4108
2017-03-31T09:33:49.245Z,4104
2017-03-31T09:34:58.938Z,4128
2017-03-31T09:36:07.897Z,4160
2017-03-31T09:37:17.107Z,4232
2017-03-31T09:38:26.065Z,4316
2017-03-31T09:39:35.026Z,4348
2017-03-31T09:40:43.999Z,4408
2017-03-31T09:41:52.961Z,4404
2017-03-31T09:43:02.218Z,4428
2017-03-31T09:44:11.186Z,4428
2017-03-31T09:45:20.155Z,4400
2017-03-31T09:46:29.118Z,4340
2017-03-31T09:47:38.168Z,4312
2017-03-31T09:48:47.469Z,4296
2017-03-31T09:49:56.440Z,4260
2017-03-31T09:51:05.765Z,4224
2017-03-31T09:52:14.817Z,4196
2017-03-31T09:53:23.778Z,4188
2017-03-31T09:54:32.991Z,4132
2017-03-31T09:55:41.959Z,4120
2017-03-31T09:56:50.926Z,4116
2017-03-31T09:57:59.886Z,4132
2017-03-31T09:59:08.848Z,4152
2017-03-31T10:00:18.060Z,4072
2017-03-31T10:01:27.030Z,4084
2017-03-31T10:02:35.993Z,4080
2017-03-31T10:03:44.956Z,4132
2017-03-31T10:04:53.919Z,4160
2017-03-31T10:06:03.137Z,4108
2017-03-31T10:07:12.186Z,4036
2017-03-31T10:08:21.233Z,3936
2017-03-31T10:09:30.196Z,3864
2017-03-31T10:10:39.162Z,3892
2017-03-31T10:11:48.377Z,4016
2017-03-31T10:12:57.422Z,4148
2017-03-31T10:14:06.385Z,4276
2017-03-31T10:15:15.351Z,4368
2017-03-31T10:16:24.313Z,4460
2017-03-31T10:17:33.524Z,4544
2017-03-31T10:18:42.568Z,4644
2017-03-31T10:19:51.526Z,4716
2017-03-31T10:21:00.482Z,4760
2017-03-31T10:22:09.486Z,4752
2017-03-31T10:23:18.703Z,4696
2017-03-31T10:24:27.663Z,4616
2017-03-31T10:25:36.627Z,4576
2017-03-31T10:26:45.590Z,4568
2017-03-31T10:27:54.554Z,4564
2017-03-31T10:29:03.854Z,4532
2017-03-31T10:30:12.819Z,4536
2017-03-31T10:31:21.781Z,4520
2017-03-31T10:32:30.745Z,4536
2017-03-31T10:33:39.709Z,4608
2017-03-31T10:34:48.925Z,4652
2017-03-31T10:35:57.890Z,4724
2017-03-31T10:37:06.856Z,4756
2017-03-31T10:38:15.820Z,4776
2017-03-31T10:39:24.783Z,4788
2017-03-31T10:40:33.997Z,4748
2017-03-31T10:41:42.953Z,4700
2017-03-31T10:42:51.916Z,4704
2017-03-31T10:44:01.060Z,4704
2017-03-31T10:45:10.025Z,4664
2017-03-31T10:46:19.237Z,4640
2017-03-31T10:47:28.203Z,4672
2017-03-31T10:48:37.168Z,4708
2017-03-31T10:49:46.133Z,4720
2017-03-31T10:50:55.098Z,4740
2017-03-31T10:52:04.367Z,4696
2017-03-31T10:53:13.339Z,4672
2017-03-31T10:54:22.339Z,4664
2017-03-31T10:55:31.299Z,4612
2017-03-31T10:56:40.257Z,4584
2017-03-31T10:57:49.468Z,4560
2017-03-31T10:58:58.512Z,4560
2017-03-31T11:00:07.478Z,4552
2017-03-31T11:01:16.534Z,4580
2017-03-31T11:02:25.500Z,4584
2017-03-31T11:03:34.719Z,4540
2017-03-31T11:04:43.682Z,4556
2017-03-31T11:05:52.644Z,4596
2017-03-31T11:07:01.605Z,4560
2017-03-31T11:08:10.572Z,4440
2017-03-31T11:09:19.788Z,4308
2017-03-31T11:10:28.759Z,4188
2017-03-31T11:11:37.721Z,4068
2017-03-31T11:12:46.683Z,4008
2017-03-31T11:13:55.646Z,3940
2017-03-31T11:15:04.857Z,3888
2017-03-31T11:16:13.820Z,3856
2017-03-31T11:17:22.786Z,3840
2017-03-31T11:18:31.749Z,3800
2017-03-31T11:19:40.707Z,3744
2017-03-31T11:20:49.915Z,3748
2017-03-31T11:21:58.877Z,3772
2017-03-31T11:23:07.839Z,3828
2017-03-31T11:24:16.805Z,3864
2017-03-31T11:25:25.767Z,3916
2017-03-31T11:26:34.983Z,3980
2017-03-31T11:27:43.941Z,4016
2017-03-31T11:28:52.911Z,4040
2017-03-31T11:30:01.869Z,4064
2017-03-31T11:31:10.838Z,4064
2017-03-31T11:32:20.049Z,4100
2017-03-31T11:33:29.016Z,4120
2017-03-31T11:34:37.980Z,4184
2017-03-31T11:35:46.945Z,4140
2017-03-31T11:36:55.905Z,4096
2017-03-31T11:38:05.251Z,4064
2017-03-31T11:39:14.214Z,4100
2017-03-31T11:40:23.182Z,4000
2017-03-31T11:41:32.147Z,3964
2017-03-31T11:42:41.106Z,3936
2017-03-31T11:43:50.317Z,3896
2017-03-31T11:44:59.281Z,3900
2017-03-31T11:46:08.250Z,3880
2017-03-31T11:47:17.218Z,3836
2017-03-31T11:48:26.268Z,3752
2017-03-31T11:49:35.481Z,3680
2017-03-31T11:50:44.439Z,3676
2017-03-31T11:51:53.496Z,3660
2017-03-31T11:53:02.458Z,3644
2017-03-31T11:54:11.419Z,3612
2017-03-31T11:55:20.720Z,3552
2017-03-31T11:56:29.683Z,3548
2017-03-31T11:57:38.648Z,3544
2017-03-31T11:58:47.610Z,3564
2017-03-31T11:59:56.657Z,3608
2017-03-31T12:01:05.876Z,3644
2017-03-31T12:02:14.835Z,3660
2017-03-31T12:03:23.795Z,3700
2017-03-31T12:04:32.759Z,3744
2017-03-31T12:05:41.726Z,3772
2017-03-31T12:06:50.964Z,3728
2017-03-31T12:07:59.928Z,3656
2017-03-31T12:09:08.894Z,3616
2017-03-31T12:10:17.855Z,3572
2017-03-31T12:11:26.816Z,3536
2017-03-31T12:12:36.031Z,3496
2017-03-31T12:13:44.993Z,3408
2017-03-31T12:14:54.130Z,3416
2017-03-31T12:16:03.182Z,3436
2017-03-31T12:17:12.147Z,3444
2017-03-31T12:18:21.411Z,3476
2017-03-31T12:19:30.372Z,3508
2017-03-31T12:20:39.337Z,3516
2017-03-31T12:21:48.305Z,3520
2017-03-31T12:22:57.270Z,3496
2017-03-31T12:24:06.578Z,3444
2017-03-31T12:25:15.869Z,3416
2017-03-31T12:26:24.872Z,3356
2017-03-31T12:27:33.833Z,3312
2017-03-31T12:28:42.837Z,3296
2017-03-31T12:29:52.049Z,3284
2017-03-31T12:31:01.014Z,3288
2017-03-31T12:32:09.977Z,3316
2017-03-31T12:33:19.260Z,3356
2017-03-31T12:34:28.224Z,3420
2017-03-31T12:35:37.435Z,3444
2017-03-31T12:36:46.395Z,3448
2017-03-31T12:37:55.686Z,3532
2017-03-31T12:39:04.652Z,3564
2017-03-31T12:40:13.618Z,3544
2017-03-31T12:41:22.887Z,3556
2017-03-31T12:42:31.852Z,3576
2017-03-31T12:43:40.813Z,3596
2017-03-31T12:44:49.776Z,3592
2017-03-31T12:45:58.738Z,3584
2017-03-31T12:47:07.951Z,3612
2017-03-31T12:48:17.007Z,3620
2017-03-31T12:49:25.968Z,3628
2017-03-31T12:50:34.928Z,3652
2017-03-31T12:51:43.898Z,3620
2017-03-31T12:52:53.108Z,3652
2017-03-31T12:54:02.065Z,3688
2017-03-31T12:55:11.030Z,3692
2017-03-31T12:56:20.084Z,3696
2017-03-31T12:57:29.089Z,3704
2017-03-31T12:58:38.305Z,3680
2017-03-31T12:59:47.358Z,3660
2017-03-31T13:00:56.325Z,3624
2017-03-31T13:02:05.289Z,3636
2017-03-31T13:03:14.253Z,3632
2017-03-31T13:04:23.496Z,3608
2017-03-31T13:05:32.458Z,3604
2017-03-31T13:06:41.508Z,3600
2017-03-31T13:07:50.476Z,3572
2017-03-31T13:08:59.532Z,3560
2017-03-31T13:10:08.750Z,3544
2017-03-31T13:11:17.719Z,3540
2017-03-31T13:12:26.691Z,3500
2017-03-31T13:13:35.665Z,3468
2017-03-31T13:14:44.724Z,3448
2017-03-31T13:15:53.938Z,3444
2017-03-31T13:17:03.227Z,3500
2017-03-31T13:18:12.188Z,3536
2017-03-31T13:19:21.150Z,3580
2017-03-31T13:20:30.112Z,3596
2017-03-31T13:21:39.332Z,3600
2017-03-31T13:22:48.292Z,3584
2017-03-31T13:23:57.252Z,3576
2017-03-31T13:25:06.218Z,3552
2017-03-31T13:26:15.183Z,3552
2017-03-31T13:27:24.722Z,3540
2017-03-31T13:28:33.684Z,3532
2017-03-31T13:29:42.655Z,3532
2017-03-31T13:30:51.616Z,3524
2017-03-31T13:32:00.666Z,3540
2017-03-31T13:33:09.931Z,3528
2017-03-31T13:34:18.898Z,3520
2017-03-31T13:35:27.894Z,3524
2017-03-31T13:36:36.865Z,3516
2017-03-31T13:37:45.834Z,3496
2017-03-31T13:38:55.054Z,3508
2017-03-31T13:40:04.017Z,3528
2017-03-31T13:41:12.979Z,3544
2017-03-31T13:42:21.940Z,3532
2017-03-31T13:43:30.907Z,3528
2017-03-31T13:44:40.119Z,3504
2017-03-31T13:45:49.078Z,3488
2017-03-31T13:46:58.049Z,3448
2017-03-31T13:48:07.010Z,3424
2017-03-31T13:49:15.971Z,3384
2017-03-31T13:50:25.185Z,3404
2017-03-31T13:51:34.152Z,3412
2017-03-31T13:52:43.118Z,3424
2017-03-31T13:53:52.080Z,3436
2017-03-31T13:55:01.052Z,3472
2017-03-31T13:56:10.270Z,3428
2017-03-31T13:57:19.322Z,3416
2017-03-31T13:58:28.286Z,3360
2017-03-31T13:59:37.246Z,3368
2017-03-31T14:00:46.210Z,3372
2017-03-31T14:01:55.428Z,3332
2017-03-31T14:03:04.391Z,3296
2017-03-31T14:04:13.358Z,3288
2017-03-31T14:05:22.405Z,3264
2017-03-31T14:06:31.372Z,3256
2017-03-31T14:07:40.637Z,3176
2017-03-31T14:08:49.602Z,3176
2017-03-31T14:09:58.569Z,3080
2017-03-31T14:11:07.540Z,3044
2017-03-31T14:12:16.505Z,3084
2017-03-31T14:13:25.720Z,3052
2017-03-31T14:14:35.427Z,3020
2017-03-31T14:15:44.481Z,3012
2017-03-31T14:16:53.441Z,2980
2017-03-31T14:18:02.406Z,2996
2017-03-31T14:19:11.667Z,3008
2017-03-31T14:20:20.627Z,3028
2017-03-31T14:21:29.595Z,3000
2017-03-31T14:22:38.646Z,2960
2017-03-31T14:23:47.937Z,2836
2017-03-31T14:24:57.154Z,2732
2017-03-31T14:26:06.114Z,2712
2017-03-31T14:27:15.081Z,2724
2017-03-31T14:28:24.042Z,2744
2017-03-31T14:29:33.010Z,2688
2017-03-31T14:30:42.309Z,2680
2017-03-31T14:31:51.363Z,2708
2017-03-31T14:33:00.415Z,2676
2017-03-31T14:34:09.375Z,2712
2017-03-31T14:35:18.512Z,2756
2017-03-31T14:36:28.113Z,2788
2017-03-31T14:37:37.075Z,2740
2017-03-31T14:38:46.035Z,2748
2017-03-31T14:39:55.002Z,2752
2017-03-31T14:41:03.968Z,2668
2017-03-31T14:42:13.190Z,2608
2017-03-31T14:43:22.152Z,2580
2017-03-31T14:44:31.119Z,2576
2017-03-31T14:45:40.083Z,2616
2017-03-31T14:46:49.051Z,2656
2017-03-31T14:47:58.410Z,2792
2017-03-31T14:49:07.410Z,3072
2017-03-31T14:50:16.393Z,2796
2017-03-31T14:51:25.411Z,2564
2017-03-31T14:52:34.374Z,2288
2017-03-31T14:53:43.636Z,2232
2017-03-31T14:54:52.609Z,2172
2017-03-31T14:56:02.028Z,2128
2017-03-31T14:57:11.227Z,2088
2017-03-31T14:58:20.432Z,2068
2017-03-31T14:59:29.855Z,2032
2017-03-31T15:00:39.067Z,1988
2017-03-31T15:01:48.310Z,1948
2017-03-31T15:02:57.449Z,1920
2017-03-31T15:04:06.738Z,1924
2017-03-31T15:05:17.521Z,1904
2017-03-31T15:06:28.648Z,1912
2017-03-31T15:07:38.010Z,1948
2017-03-31T15:08:47.498Z,1952
2017-03-31T15:09:57.070Z,1976
2017-03-31T15:11:07.223Z,1972
2017-03-31T15:12:16.273Z,1944
2017-03-31T15:13:25.335Z,1956
2017-03-31T15:14:34.499Z,1936
2017-03-31T15:15:43.713Z,1924
2017-03-31T15:16:53.117Z,1900
2017-03-31T15:18:05.466Z,1876
2017-03-31T15:19:14.446Z,1880
2017-03-31T15:20:23.806Z,1848
2017-03-31T15:21:32.998Z,1856
2017-03-31T15:22:42.597Z,1872
2017-03-31T15:23:51.995Z,1864
2017-03-31T15:25:01.417Z,1868
2017-03-31T15:26:10.554Z,1864
2017-03-31T15:27:19.523Z,1860
2017-03-31T15:28:28.733Z,1868
2017-03-31T15:29:37.782Z,1912
2017-03-31T15:30:46.823Z,1964
2017-03-31T15:31:55.786Z,2016
2017-03-31T15:33:04.756Z,2104
2017-03-31T15:34:14.023Z,2200
2017-03-31T15:35:22.989Z,2256
2017-03-31T15:36:31.954Z,2244
2017-03-31T15:37:40.914Z,2240
2017-03-31T15:38:49.884Z,2204
2017-03-31T15:39:59.103Z,2136
2017-03-31T15:41:08.389Z,2060
2017-03-31T15:42:17.359Z,1984
2017-03-31T15:43:26.335Z,1904
2017-03-31T15:44:35.304Z,1848
2017-03-31T15:45:44.672Z,1792
2017-03-31T15:46:53.676Z,1740
2017-03-31T15:48:02.643Z,1704
2017-03-31T15:49:11.948Z,1668
2017-03-31T15:50:21.115Z,1624